createdAt,value
2022-08-04T00:00:01.648Z,100415.53
2022-08-04T00:02:53.078Z,100410.41
2022-08-04T00:05:34.716Z,100411.84
2022-08-04T00:08:17.173Z,100421.25
2022-08-04T00:10:55.383Z,100417.41
2022-08-04T00:13:32.071Z,100414.97
2022-08-04T00:16:08.341Z,100420.69
2022-08-04T00:18:48.817Z,100429.97
2022-08-04T00:21:26.229Z,100426.53
2022-08-04T00:24:11.524Z,100428.69
2022-08-04T00:26:47.160Z,100430.66
2022-08-04T00:29:21.249Z,100424.66
2022-08-04T00:31:58.165Z,100426.06
2022-08-04T00:34:33.646Z,100428.91
2022-08-04T00:37:08.150Z,100428.03
2022-08-04T00:39:42.166Z,100434.34
2022-08-04T00:42:35.754Z,100428.03
2022-08-04T00:46:15.835Z,100428.03
2022-08-04T00:48:54.830Z,100440.03
2022-08-04T00:51:39.495Z,100425.00
2022-08-04T00:54:17.991Z,100432.59
2022-08-04T00:57:33.696Z,100439.75
2022-08-04T01:00:11.056Z,100435.56
2022-08-04T01:02:58.015Z,100433.84
2022-08-04T01:05:44.189Z,100442.13
2022-08-04T01:08:41.518Z,100438.69
2022-08-04T01:11:25.787Z,100432.69
2022-08-04T01:14:21.374Z,100435.53
2022-08-04T01:17:08.005Z,100434.06
2022-08-04T01:20:06.758Z,100439.38
2022-08-04T01:23:05.856Z,100435.38
2022-08-04T01:26:43.660Z,100444.78
2022-08-04T01:29:15.028Z,100448.75
2022-08-04T01:32:01.618Z,100447.03
2022-08-04T01:34:39.518Z,100440.16
2022-08-04T01:37:21.147Z,100443.88
2022-08-04T01:40:04.310Z,100444.00
2022-08-04T01:42:40.619Z,100444.41
2022-08-04T01:45:16.932Z,100440.09
2022-08-04T01:47:51.882Z,100439.38
2022-08-04T01:50:28.152Z,100444.09
2022-08-04T01:53:02.269Z,100447.94
2022-08-04T01:55:54.608Z,100441.91
2022-08-04T01:58:31.474Z,100440.19
2022-08-04T02:01:09.395Z,100447.47
2022-08-04T02:04:22.029Z,100445.03
2022-08-04T02:06:47.685Z,100444.31
2022-08-04T02:09:28.655Z,100442.72
2022-08-04T02:12:06.187Z,100440.00
2022-08-04T02:14:58.020Z,100442.00
2022-08-04T02:17:38.087Z,100442.84
2022-08-04T02:20:16.857Z,100432.97
2022-08-04T02:22:59.951Z,100436.69
2022-08-04T02:25:39.723Z,100434.22
2022-08-04T02:28:21.314Z,100438.91
2022-08-04T02:31:05.539Z,100437.06
2022-08-04T02:33:43.468Z,100432.75
2022-08-04T02:36:25.847Z,100430.16
2022-08-04T02:39:01.934Z,100424.03
2022-08-04T02:41:36.832Z,100428.72
2022-08-04T02:44:11.815Z,100428.13
2022-08-04T02:46:46.001Z,100432.09
2022-08-04T02:49:22.748Z,100425.97
2022-08-04T02:51:58.481Z,100430.63
2022-08-04T02:54:36.806Z,100427.19
2022-08-04T02:57:12.898Z,100432.75
2022-08-04T03:00:01.986Z,100431.91
2022-08-04T03:02:46.914Z,100433.00
2022-08-04T03:05:26.757Z,100427.84
2022-08-04T03:08:29.148Z,100433.28
2022-08-04T03:11:27.716Z,100434.13
2022-08-04T03:15:00.468Z,100431.41
2022-08-04T03:18:22.114Z,100435.53
2022-08-04T03:21:31.312Z,100445.78
2022-08-04T03:24:38.204Z,100445.91
2022-08-04T03:27:17.316Z,100450.00
2022-08-04T03:30:06.357Z,100449.88
2022-08-04T03:33:12.403Z,100443.59
2022-08-04T03:36:27.293Z,100434.81
2022-08-04T03:39:58.339Z,100441.72
2022-08-04T03:42:59.110Z,100438.88
2022-08-04T03:46:00.166Z,100447.63
2022-08-04T03:48:54.960Z,100442.06
2022-08-04T03:51:56.724Z,100437.78
2022-08-04T03:54:58.063Z,100442.94
2022-08-04T03:57:50.387Z,100450.19
2022-08-04T04:00:32.476Z,100456.25
2022-08-04T04:03:35.671Z,100446.97
2022-08-04T04:06:48.851Z,100446.84
2022-08-04T04:10:05.026Z,100450.41
2022-08-04T04:13:17.996Z,100452.72
2022-08-04T04:16:30.130Z,100456.78
2022-08-04T04:19:24.915Z,100459.50
2022-08-04T04:22:19.172Z,100468.53
2022-08-04T04:25:06.415Z,100461.63
2022-08-04T04:27:52.092Z,100464.94
2022-08-04T04:30:33.027Z,100462.44
2022-08-04T04:33:31.949Z,100466.94
2022-08-04T04:36:14.602Z,100461.81
2022-08-04T04:39:05.447Z,100466.13
2022-08-04T04:42:09.826Z,100473.00
2022-08-04T04:45:05.044Z,100465.06
2022-08-04T04:48:09.047Z,100467.34
2022-08-04T04:51:00.027Z,100477.97
2022-08-04T04:53:44.522Z,100476.31
2022-08-04T04:56:26.829Z,100470.63
2022-08-04T04:59:02.948Z,100471.56
2022-08-04T05:01:55.137Z,100472.75
2022-08-04T05:04:54.115Z,100469.50
2022-08-04T05:07:55.264Z,100472.78
2022-08-04T05:10:48.246Z,100473.97
2022-08-04T05:14:37.449Z,100471.09
2022-08-04T05:16:36.768Z,100479.41
2022-08-04T05:19:22.133Z,100471.69
2022-08-04T05:22:05.149Z,100475.44
2022-08-04T05:24:43.472Z,100478.28
2022-08-04T05:27:22.203Z,100474.56
2022-08-04T05:30:02.498Z,100479.69
2022-08-04T05:32:46.951Z,100480.38
2022-08-04T05:35:37.324Z,100475.50
2022-08-04T05:38:27.950Z,100476.75
2022-08-04T05:41:03.738Z,100479.13
2022-08-04T05:43:41.443Z,100477.09
2022-08-04T05:46:18.739Z,100477.59
2022-08-04T05:48:53.674Z,100477.38
2022-08-04T05:51:31.130Z,100479.59
2022-08-04T05:54:07.210Z,100477.25
2022-08-04T05:56:41.903Z,100484.03
2022-08-04T05:59:20.201Z,100479.06
2022-08-04T06:01:58.504Z,100478.22
2022-08-04T06:04:36.899Z,100481.91
2022-08-04T06:07:11.406Z,100488.72
2022-08-04T06:09:45.042Z,100486.41
2022-08-04T06:12:23.404Z,100486.00
2022-08-04T06:14:59.883Z,100493.44
2022-08-04T06:19:56.991Z,100490.97
2022-08-04T06:20:37.365Z,100491.78
2022-08-04T06:23:13.849Z,100487.56
2022-08-04T06:25:51.620Z,100494.13
2022-08-04T06:28:26.881Z,100490.75
2022-08-04T06:32:30.732Z,100494.94
2022-08-04T06:33:59.170Z,100491.38
2022-08-04T06:36:36.976Z,100488.47
2022-08-04T06:39:12.898Z,100497.38
2022-08-04T06:42:17.362Z,100494.97
2022-08-04T06:44:43.842Z,100497.78
2022-08-04T06:47:20.035Z,100493.28
2022-08-04T06:51:29.388Z,100498.59
2022-08-04T06:52:50.557Z,100501.97
2022-08-04T06:55:25.414Z,100497.69
2022-08-04T06:58:03.106Z,100499.03
2022-08-04T07:00:38.133Z,100508.19
2022-08-04T07:03:12.763Z,100498.38
2022-08-04T07:05:50.571Z,100496.59
2022-08-04T07:08:24.613Z,100498.41
2022-08-04T07:11:00.041Z,100494.22
2022-08-04T07:13:34.995Z,100491.72
2022-08-04T07:16:11.166Z,100489.56
2022-08-04T07:18:44.910Z,100495.31
2022-08-04T07:21:24.422Z,100492.47
2022-08-04T07:23:58.055Z,100497.78
2022-08-04T07:26:31.623Z,100502.97
2022-08-04T07:29:05.859Z,100494.38
2022-08-04T07:31:39.675Z,100501.88
2022-08-04T07:34:21.179Z,100505.47
2022-08-04T07:36:59.277Z,100501.28
2022-08-04T07:39:48.285Z,100494.72
2022-08-04T07:42:22.630Z,100498.75
2022-08-04T07:44:56.248Z,100497.44
2022-08-04T07:47:30.301Z,100506.31
2022-08-04T07:50:04.500Z,100500.34
2022-08-04T07:52:40.344Z,100499.63
2022-08-04T07:55:15.014Z,100493.56
2022-08-04T07:57:48.587Z,100491.34
2022-08-04T08:00:22.241Z,100492.09
2022-08-04T08:02:57.995Z,100490.28
2022-08-04T08:05:31.850Z,100498.28
2022-08-04T08:08:06.941Z,100494.00
2022-08-04T08:10:41.410Z,100489.56
2022-08-04T08:13:15.528Z,100482.22
2022-08-04T08:15:49.761Z,100481.84
2022-08-04T08:18:23.267Z,100487.31
2022-08-04T08:20:57.685Z,100481.72
2022-08-04T08:23:36.023Z,100475.31
2022-08-04T08:26:09.662Z,100488.59
2022-08-04T08:28:43.479Z,100486.03
2022-08-04T08:31:17.144Z,100484.22
2022-08-04T08:33:52.064Z,100489.41
2022-08-04T08:36:31.862Z,100488.38
2022-08-04T08:39:11.735Z,100482.47
2022-08-04T08:42:21.627Z,100493.50
2022-08-04T08:45:26.071Z,100487.56
2022-08-04T08:48:30.795Z,100484.97
2022-08-04T08:51:31.754Z,100486.53
2022-08-04T08:54:28.752Z,100495.97
2022-08-04T08:57:21.672Z,100490.53
2022-08-04T09:00:06.720Z,100491.56
2022-08-04T09:03:14.523Z,100494.88
2022-08-04T09:06:29.144Z,100487.31
2022-08-04T09:09:38.526Z,100506.28
2022-08-04T09:12:25.544Z,100508.19
2022-08-04T09:15:06.893Z,100501.63
2022-08-04T09:17:46.824Z,100493.59
2022-08-04T09:20:30.760Z,100495.44
2022-08-04T09:23:24.321Z,100500.53
2022-08-04T09:26:05.501Z,100505.25
2022-08-04T09:28:56.279Z,100492.06
2022-08-04T09:31:51.409Z,100500.81
2022-08-04T09:34:40.789Z,100492.44
2022-08-04T09:37:22.056Z,100491.94
2022-08-04T09:40:06.325Z,100495.81
2022-08-04T09:42:51.256Z,100490.38
2022-08-04T09:45:42.380Z,100490.28
2022-08-04T09:48:23.843Z,100485.50
2022-08-04T09:51:00.930Z,100488.06
2022-08-04T09:53:51.401Z,100490.41
2022-08-04T09:56:32.276Z,100503.66
2022-08-04T09:59:19.774Z,100489.19
2022-08-04T10:02:00.038Z,100488.28
2022-08-04T10:04:36.562Z,100481.66
2022-08-04T10:07:24.013Z,100488.72
2022-08-04T10:10:28.901Z,100492.78
2022-08-04T10:13:27.501Z,100502.34
2022-08-04T10:16:22.090Z,100499.84
2022-08-04T10:19:09.416Z,100485.69
2022-08-04T10:22:27.035Z,100480.88
2022-08-04T10:25:02.424Z,100485.94
2022-08-04T10:27:41.549Z,100489.81
2022-08-04T10:30:19.373Z,100471.00
2022-08-04T10:33:01.955Z,100472.94
2022-08-04T10:35:46.729Z,100476.06
2022-08-04T10:38:30.912Z,100466.09
2022-08-04T10:41:12.488Z,100456.34
2022-08-04T10:43:54.408Z,100468.94
2022-08-04T10:46:33.142Z,100465.13
2022-08-04T10:49:11.564Z,100461.84
2022-08-04T10:51:57.263Z,100463.56
2022-08-04T10:54:45.387Z,100460.72
2022-08-04T10:57:25.261Z,100457.47
2022-08-04T11:00:04.563Z,100455.22
2022-08-04T11:02:43.891Z,100442.84
2022-08-04T11:05:28.166Z,100452.03
2022-08-04T11:08:11.741Z,100460.03
2022-08-04T11:10:50.164Z,100445.72
2022-08-04T11:13:29.965Z,100441.97
2022-08-04T11:16:08.114Z,100441.34
2022-08-04T11:18:49.436Z,100449.19
2022-08-04T11:21:34.123Z,100443.91
2022-08-04T11:24:17.540Z,100435.22
2022-08-04T11:26:57.475Z,100441.47
2022-08-04T11:29:47.792Z,100439.78
2022-08-04T11:32:28.099Z,100431.34
2022-08-04T11:35:06.752Z,100435.22
2022-08-04T11:37:51.381Z,100436.38
2022-08-04T11:40:29.926Z,100440.00
2022-08-04T11:43:08.563Z,100443.41
2022-08-04T11:45:52.306Z,100438.09
2022-08-04T11:48:34.025Z,100444.75
2022-08-04T11:51:09.563Z,100443.28
2022-08-04T11:53:45.925Z,100442.84
2022-08-04T11:56:32.399Z,100445.19
2022-08-04T11:59:09.917Z,100436.50
2022-08-04T12:02:00.378Z,100432.44
2022-08-04T12:04:45.777Z,100428.63
2022-08-04T12:07:41.308Z,100429.00
2022-08-04T12:10:42.178Z,100432.88
2022-08-04T12:13:26.722Z,100439.03
2022-08-04T12:16:12.067Z,100430.53
2022-08-04T12:18:52.511Z,100426.97
2022-08-04T12:21:33.102Z,100422.94
2022-08-04T12:24:15.456Z,100410.97
2022-08-04T12:26:54.021Z,100417.16
2022-08-04T12:29:32.650Z,100411.25
2022-08-04T12:32:14.872Z,100418.66
2022-08-04T12:34:56.972Z,100418.84
2022-08-04T12:37:40.686Z,100420.38
2022-08-04T12:40:28.263Z,100410.16
2022-08-04T12:43:10.940Z,100411.25
2022-08-04T12:45:48.748Z,100408.84
2022-08-04T12:48:24.069Z,100410.38
2022-08-04T12:50:59.357Z,100405.25
2022-08-04T12:53:50.651Z,100398.88
2022-08-04T12:56:28.758Z,100396.53
2022-08-04T12:59:06.557Z,100390.19
2022-08-04T13:02:08.470Z,100395.88
2022-08-04T13:04:51.578Z,100388.84
2022-08-04T13:07:27.944Z,100387.56
2022-08-04T13:10:07.500Z,100395.44
2022-08-04T13:12:43.566Z,100385.00
2022-08-04T13:15:22.392Z,100392.44
2022-08-04T13:18:01.057Z,100390.31
2022-08-04T13:20:37.120Z,100383.28
2022-08-04T13:23:13.458Z,100390.72
2022-08-04T13:26:43.579Z,100385.16
2022-08-04T13:28:44.613Z,100385.53
2022-08-04T13:31:21.190Z,100389.50
2022-08-04T13:34:05.418Z,100374.63
2022-08-04T13:36:41.050Z,100379.47
2022-08-04T13:39:18.892Z,100381.16
2022-08-04T13:41:58.922Z,100379.84
2022-08-04T13:44:36.143Z,100371.53
2022-08-04T13:47:15.721Z,100375.94
2022-08-04T13:50:11.037Z,100374.69
2022-08-04T13:52:46.633Z,100367.78
2022-08-04T13:55:26.341Z,100372.88
2022-08-04T13:58:10.365Z,100371.78
2022-08-04T14:00:48.240Z,100365.63
2022-08-04T14:03:31.797Z,100367.75
2022-08-04T14:06:18.091Z,100359.69
2022-08-04T14:08:54.747Z,100349.72
2022-08-04T14:12:06.280Z,100356.56
2022-08-04T14:14:33.900Z,100355.78
2022-08-04T14:17:19.880Z,100358.78
2022-08-04T14:20:00.215Z,100356.44
2022-08-04T14:22:37.544Z,100344.56
2022-08-04T14:25:15.396Z,100347.34
2022-08-04T14:27:52.356Z,100346.28
2022-08-04T14:30:28.187Z,100334.19
2022-08-04T14:35:20.889Z,100338.47
2022-08-04T14:38:03.419Z,100330.41
2022-08-04T14:40:38.672Z,100330.19
2022-08-04T14:43:12.414Z,100327.19
2022-08-04T14:45:54.093Z,100327.34
2022-08-04T14:48:28.620Z,100330.97
2022-08-04T14:51:03.929Z,100331.53
2022-08-04T14:53:39.094Z,100330.22
2022-08-04T14:56:37.506Z,100341.44
2022-08-04T14:59:09.991Z,100330.38
2022-08-04T15:02:00.357Z,100331.19
2022-08-04T15:04:36.483Z,100328.63
2022-08-04T15:07:12.027Z,100330.97
2022-08-04T15:09:50.847Z,100325.00
2022-08-04T15:12:25.657Z,100327.06
2022-08-04T15:15:26.881Z,100317.31
2022-08-04T15:17:57.599Z,100318.75
2022-08-04T15:20:33.076Z,100314.28
2022-08-04T15:23:10.857Z,100313.25
2022-08-04T15:25:49.375Z,100315.78
2022-08-04T15:28:27.148Z,100304.97
2022-08-04T15:31:04.986Z,100315.78
2022-08-04T15:33:44.230Z,100323.22
2022-08-04T15:36:23.983Z,100322.75
2022-08-04T15:39:11.083Z,100314.84
2022-08-04T15:41:55.622Z,100314.41
2022-08-04T15:44:48.384Z,100317.34
2022-08-04T15:47:22.418Z,100323.06
2022-08-04T15:50:09.082Z,100320.13
2022-08-04T15:53:10.721Z,100316.13
2022-08-04T15:55:48.571Z,100324.78
2022-08-04T15:58:26.456Z,100320.91
2022-08-04T16:01:17.249Z,100311.56
2022-08-04T16:03:59.520Z,100315.94
2022-08-04T16:06:49.188Z,100316.16
2022-08-04T16:09:46.127Z,100312.50
2022-08-04T16:12:54.565Z,100304.84
2022-08-04T16:15:47.022Z,100302.03
2022-08-04T16:18:42.664Z,100302.63
2022-08-04T16:21:22.706Z,100302.38
2022-08-04T16:24:23.847Z,100299.63
2022-08-04T16:27:00.770Z,100295.72
2022-08-04T16:29:38.139Z,100293.09
2022-08-04T16:32:19.060Z,100294.72
2022-08-04T16:35:00.025Z,100288.31
2022-08-04T16:37:36.165Z,100292.69
2022-08-04T16:40:41.219Z,100299.66
2022-08-04T16:43:16.179Z,100293.41
2022-08-04T16:45:55.545Z,100297.41
2022-08-04T16:48:31.918Z,100290.66
2022-08-04T16:51:07.818Z,100289.63
2022-08-04T16:54:02.899Z,100291.72
2022-08-04T16:56:37.922Z,100283.00
2022-08-04T16:59:13.277Z,100290.59
2022-08-04T17:01:48.884Z,100289.94
2022-08-04T17:04:31.867Z,100279.97
2022-08-04T17:07:08.864Z,100289.50
2022-08-04T17:09:51.060Z,100297.63
2022-08-04T17:12:30.028Z,100292.50
2022-08-04T17:15:03.671Z,100288.63
2022-08-04T17:18:04.073Z,100290.25
2022-08-04T17:20:58.991Z,100295.00
2022-08-04T17:24:16.039Z,100294.25
2022-08-04T17:26:51.805Z,100293.91
2022-08-04T17:29:44.854Z,100299.88
2022-08-04T17:32:21.744Z,100294.81
2022-08-04T17:34:58.671Z,100302.09
2022-08-04T17:37:38.776Z,100292.06
2022-08-04T17:44:05.100Z,100299.72
2022-08-04T17:46:29.932Z,100293.75
2022-08-04T17:49:07.833Z,100298.81
2022-08-04T17:54:43.597Z,100296.91
2022-08-04T17:57:20.108Z,100293.84
2022-08-04T17:59:57.601Z,100301.97
2022-08-04T18:02:35.177Z,100299.78
2022-08-04T18:05:11.783Z,100301.34
2022-08-04T18:08:38.343Z,100299.38
2022-08-04T18:10:55.630Z,100306.59
2022-08-04T18:13:31.402Z,100298.91
2022-08-04T18:16:22.766Z,100304.28
2022-08-04T18:19:10.503Z,100313.06
2022-08-04T18:24:56.046Z,100308.53
2022-08-04T18:27:33.151Z,100308.38
2022-08-04T18:30:31.229Z,100314.38
2022-08-04T18:33:24.639Z,100310.81
2022-08-04T18:36:34.655Z,100318.91
2022-08-04T18:38:55.484Z,100316.03
2022-08-04T18:42:01.028Z,100310.25
2022-08-04T18:44:29.143Z,100313.84
2022-08-04T18:47:29.659Z,100314.56
2022-08-04T18:51:01.720Z,100314.44
2022-08-04T18:52:53.357Z,100319.91
2022-08-04T18:55:51.746Z,100325.03
2022-08-04T18:58:27.554Z,100326.13
2022-08-04T19:01:03.087Z,100332.13
2022-08-04T19:03:53.957Z,100330.25
2022-08-04T19:06:31.441Z,100330.06
2022-08-04T19:09:06.151Z,100321.88
2022-08-04T19:11:54.562Z,100329.72
2022-08-04T19:14:29.161Z,100323.91
2022-08-04T19:17:12.509Z,100327.31
2022-08-04T19:19:47.655Z,100332.44
2022-08-04T19:22:35.438Z,100332.09
2022-08-04T19:25:10.937Z,100330.88
2022-08-04T19:27:44.681Z,100324.91
2022-08-04T19:30:29.180Z,100322.69
2022-08-04T19:33:05.610Z,100326.09
2022-08-04T19:35:46.219Z,100325.03
2022-08-04T19:38:24.499Z,100323.50
2022-08-04T19:41:01.157Z,100320.72
2022-08-04T19:43:35.062Z,100330.56
2022-08-04T19:46:08.979Z,100322.88
2022-08-04T19:49:00.049Z,100320.31
2022-08-04T19:51:38.808Z,100319.47
2022-08-04T19:54:23.511Z,100330.22
2022-08-04T19:57:01.203Z,100330.91
2022-08-04T19:59:35.756Z,100325.59
2022-08-04T20:02:09.350Z,100327.50
2022-08-04T20:04:49.895Z,100333.63
2022-08-04T20:07:27.555Z,100325.56
2022-08-04T20:10:04.562Z,100332.06
2022-08-04T20:12:42.182Z,100340.25
2022-08-04T20:15:16.137Z,100337.84
2022-08-04T20:18:08.179Z,100338.00
2022-08-04T20:20:45.102Z,100336.00
2022-08-04T20:23:18.727Z,100336.16
2022-08-04T20:26:14.120Z,100340.97
2022-08-04T20:28:54.241Z,100338.34
2022-08-04T20:31:31.721Z,100336.97
2022-08-04T20:34:05.743Z,100341.03
2022-08-04T20:36:41.552Z,100343.41
2022-08-04T20:39:23.926Z,100334.69
2022-08-04T20:41:57.613Z,100345.25
2022-08-04T20:44:31.378Z,100340.97
2022-08-04T20:47:05.042Z,100337.88
2022-08-04T20:49:41.211Z,100338.34
2022-08-04T20:52:20.575Z,100339.81
2022-08-04T20:54:56.108Z,100338.97
2022-08-04T20:57:48.468Z,100339.44
2022-08-04T21:00:26.484Z,100336.88
2022-08-04T21:03:03.890Z,100342.06
2022-08-04T21:05:37.538Z,100347.47
2022-08-04T21:08:12.629Z,100345.06
2022-08-04T21:13:52.442Z,100346.78
2022-08-04T21:16:55.700Z,100347.13
2022-08-04T21:19:22.506Z,100346.53
2022-08-04T21:21:58.094Z,100349.78
2022-08-04T21:24:33.913Z,100338.44
2022-08-04T21:27:09.627Z,100342.59
2022-08-04T21:29:43.456Z,100347.97
2022-08-04T21:32:27.199Z,100342.50
2022-08-04T21:35:05.381Z,100343.13
2022-08-04T21:40:41.922Z,100338.44
2022-08-04T21:43:20.846Z,100339.03
2022-08-04T21:46:04.085Z,100328.72
2022-08-04T21:48:39.122Z,100339.22
2022-08-04T21:51:58.840Z,100344.09
2022-08-04T21:54:15.086Z,100338.09
2022-08-04T21:56:52.499Z,100338.41
2022-08-04T21:59:30.391Z,100334.69
2022-08-04T22:02:05.079Z,100337.09
2022-08-04T22:04:41.486Z,100340.38
2022-08-04T22:07:16.601Z,100343.94
2022-08-04T22:10:00.560Z,100335.78
2022-08-04T22:12:38.401Z,100339.81
2022-08-04T22:15:23.327Z,100336.06
2022-08-04T22:18:11.198Z,100336.97
2022-08-04T22:20:45.956Z,100336.22
2022-08-04T22:23:24.225Z,100333.81
2022-08-04T22:25:58.999Z,100327.94
2022-08-04T22:28:34.018Z,100332.44
2022-08-04T22:31:24.238Z,100332.03
2022-08-04T22:33:58.418Z,100333.34
2022-08-04T22:36:33.650Z,100330.91
2022-08-04T22:39:08.205Z,100337.94
2022-08-04T22:42:03.042Z,100328.38
2022-08-04T22:44:40.351Z,100336.66
2022-08-04T22:47:23.650Z,100324.78
2022-08-04T22:50:20.828Z,100319.22
2022-08-04T22:52:55.854Z,100326.50
2022-08-04T22:56:07.050Z,100317.66
2022-08-04T22:58:28.560Z,100324.38
2022-08-04T23:01:04.476Z,100308.50
2022-08-04T23:03:39.368Z,100305.22
2022-08-04T23:06:13.187Z,100312.22
2022-08-04T23:08:48.576Z,100311.69
2022-08-04T23:11:22.348Z,100308.97
2022-08-04T23:13:55.979Z,100307.53
2022-08-04T23:16:40.872Z,100302.09
2022-08-04T23:19:15.805Z,100300.41
2022-08-04T23:22:00.858Z,100297.97
2022-08-04T23:24:39.987Z,100292.38
2022-08-04T23:27:14.871Z,100295.25
2022-08-04T23:29:54.482Z,100294.81
2022-08-04T23:32:29.825Z,100292.38
2022-08-04T23:35:05.665Z,100292.66
2022-08-04T23:37:55.123Z,100290.94
2022-08-04T23:40:33.591Z,100294.50
2022-08-04T23:43:16.915Z,100292.97
2022-08-04T23:46:03.856Z,100290.22
2022-08-04T23:48:42.920Z,100280.03
2022-08-04T23:51:16.476Z,100289.47
2022-08-04T23:54:01.574Z,100282.91
2022-08-04T23:56:37.975Z,100284.59
2022-08-04T23:59:48.875Z,100285.28
